createdAt,value
2018-11-05T00:00:36.733Z,23.90
2018-11-05T00:03:06.232Z,24.70
2018-11-05T00:05:35.090Z,27.07
2018-11-05T00:08:04.004Z,24.50
2018-11-05T00:10:32.541Z,23.63
2018-11-05T00:13:01.192Z,29.13
2018-11-05T00:15:29.610Z,29.50
2018-11-05T00:17:58.377Z,26.03
2018-11-05T00:20:27.058Z,27.13
2018-11-05T00:22:55.848Z,24.43
2018-11-05T00:25:24.494Z,27.93
2018-11-05T00:27:53.217Z,28.70
2018-11-05T00:30:22.068Z,27.07
2018-11-05T00:32:50.517Z,24.47
2018-11-05T00:35:19.156Z,26.23
2018-11-05T00:37:47.757Z,25.53
2018-11-05T00:40:16.847Z,27.10
2018-11-05T00:42:46.037Z,24.03
2018-11-05T00:45:15.205Z,28.50
2018-11-05T00:47:44.321Z,22.40
2018-11-05T00:50:14.339Z,22.70
2018-11-05T00:52:43.094Z,25.57
2018-11-05T00:55:12.239Z,25.00
2018-11-05T00:57:40.905Z,22.40
2018-11-05T01:00:11.085Z,24.30
2018-11-05T01:02:40.219Z,23.03
2018-11-05T01:05:11.454Z,23.43
2018-11-05T01:07:40.663Z,24.30
2018-11-05T01:10:10.441Z,26.40
2018-11-05T01:12:39.375Z,27.90
2018-11-05T01:15:10.024Z,24.30
2018-11-05T01:17:39.287Z,32.00
2018-11-05T01:20:09.696Z,45.83
2018-11-05T01:22:38.850Z,31.67
2018-11-05T01:25:08.075Z,27.87
2018-11-05T01:27:37.102Z,29.03
2018-11-05T01:30:07.778Z,25.77
2018-11-05T01:32:36.569Z,24.10
2018-11-05T01:35:07.658Z,22.73
2018-11-05T01:37:36.185Z,24.57
2018-11-05T01:40:06.641Z,30.25
2018-11-05T01:42:35.515Z,29.27
2018-11-05T01:45:04.498Z,30.90
2018-11-05T01:47:33.278Z,27.00
2018-11-05T01:50:02.074Z,25.30
2018-11-05T01:52:30.763Z,24.07
2018-11-05T01:54:59.289Z,24.93
2018-11-05T01:57:27.944Z,24.50
2018-11-05T01:59:57.540Z,22.10
2018-11-05T02:02:26.226Z,24.90
2018-11-05T02:04:54.679Z,20.90
2018-11-05T02:07:23.583Z,21.03
2018-11-05T02:09:52.522Z,22.03
2018-11-05T02:12:21.161Z,20.00
2018-11-05T02:14:49.876Z,24.97
2018-11-05T02:17:18.464Z,21.10
2018-11-05T02:19:47.161Z,22.60
2018-11-05T02:22:15.716Z,23.30
2018-11-05T02:24:44.468Z,20.37
2018-11-05T02:27:13.116Z,21.17
2018-11-05T02:29:41.621Z,21.90
2018-11-05T02:32:10.351Z,18.23
2018-11-05T02:34:38.876Z,19.37
2018-11-05T02:37:07.510Z,20.53
2018-11-05T02:39:36.123Z,20.87
2018-11-05T02:42:04.762Z,18.27
2018-11-05T02:44:33.638Z,18.73
2018-11-05T02:47:02.129Z,17.40
2018-11-05T02:49:31.112Z,16.30
2018-11-05T02:51:59.809Z,16.67
2018-11-05T02:54:28.193Z,16.27
2018-11-05T02:56:57.067Z,14.77
2018-11-05T02:59:25.650Z,17.53
2018-11-05T03:01:54.134Z,17.27
2018-11-05T03:04:22.778Z,21.67
2018-11-05T03:06:51.392Z,17.42
2018-11-05T03:09:20.133Z,19.77
2018-11-05T03:11:48.735Z,20.03
2018-11-05T03:14:17.257Z,32.27
2018-11-05T03:16:45.900Z,25.47
2018-11-05T03:19:14.756Z,40.23
2018-11-05T03:21:43.565Z,31.60
2018-11-05T03:24:12.217Z,33.97
2018-11-05T03:26:41.334Z,42.17
2018-11-05T03:29:09.859Z,30.37
2018-11-05T03:31:38.608Z,35.98
2018-11-05T03:34:07.250Z,30.97
2018-11-05T03:36:35.950Z,36.00
2018-11-05T03:39:07.990Z,35.63
2018-11-05T03:41:36.688Z,46.23
2018-11-05T03:44:06.023Z,32.53
2018-11-05T03:46:34.960Z,32.90
2018-11-05T03:49:03.903Z,36.03
2018-11-05T03:51:32.822Z,43.33
2018-11-05T03:54:01.435Z,48.00
2018-11-05T03:56:30.014Z,47.13
2018-11-05T03:58:58.752Z,32.07
2018-11-05T04:01:27.371Z,29.63
2018-11-05T04:03:55.869Z,38.83
2018-11-05T04:06:24.691Z,51.00
2018-11-05T04:08:53.494Z,50.63
2018-11-05T04:11:22.382Z,53.33
2018-11-05T04:13:51.199Z,44.90
2018-11-05T04:16:19.735Z,44.77
2018-11-05T04:18:48.372Z,45.23
2018-11-05T04:21:17.012Z,46.50
2018-11-05T04:23:45.346Z,33.33
2018-11-05T04:26:13.942Z,57.57
2018-11-05T04:28:42.568Z,53.23
2018-11-05T04:31:11.292Z,64.40
2018-11-05T04:33:39.872Z,50.37
2018-11-05T04:36:08.345Z,73.07
2018-11-05T04:38:37.366Z,57.77
2018-11-05T04:41:06.589Z,60.00
2018-11-05T04:43:35.326Z,35.15
2018-11-05T04:46:03.797Z,33.63
2018-11-05T04:48:32.512Z,32.50
2018-11-05T04:51:01.248Z,30.03
2018-11-05T04:53:29.875Z,30.83
2018-11-05T04:55:58.373Z,27.53
2018-11-05T04:58:26.837Z,33.40
2018-11-05T05:00:55.313Z,32.40
2018-11-05T05:03:23.791Z,27.93
2018-11-05T05:05:52.323Z,30.40
2018-11-05T05:08:20.984Z,41.93
2018-11-05T05:10:49.452Z,25.30
2018-11-05T05:13:17.971Z,28.30
2018-11-05T05:15:46.439Z,32.78
2018-11-05T05:18:14.941Z,41.00
2018-11-05T05:20:43.458Z,30.90
2018-11-05T05:23:12.169Z,26.03
2018-11-05T05:25:40.846Z,23.77
2018-11-05T05:28:09.741Z,34.30
2018-11-05T05:30:38.451Z,62.33
2018-11-05T05:33:07.235Z,139.10
2018-11-05T05:35:35.687Z,82.80
2018-11-05T05:38:04.238Z,118.90
2018-11-05T05:40:32.961Z,34.53
2018-11-05T05:43:01.646Z,69.10
2018-11-05T05:45:30.302Z,52.33
2018-11-05T05:47:58.830Z,78.25
2018-11-05T05:50:27.478Z,126.22
2018-11-05T05:52:56.058Z,170.77
2018-11-05T05:55:24.594Z,109.93
2018-11-05T05:57:53.171Z,112.70
2018-11-05T06:00:21.754Z,182.70
2018-11-05T06:02:50.450Z,146.13
2018-11-05T06:05:19.218Z,174.00
2018-11-05T06:07:47.746Z,175.23
2018-11-05T06:10:16.631Z,158.20
2018-11-05T06:12:45.650Z,116.63
2018-11-05T06:15:15.484Z,54.43
2018-11-05T06:17:44.184Z,81.63
2018-11-05T06:20:15.313Z,73.00
2018-11-05T06:22:45.105Z,57.13
2018-11-05T06:25:13.683Z,94.80
2018-11-05T06:27:42.706Z,102.20
2018-11-05T06:30:15.607Z,100.10
2018-11-05T06:32:45.427Z,45.03
2018-11-05T06:35:14.700Z,66.40
2018-11-05T06:37:43.534Z,50.90
2018-11-05T06:40:14.136Z,36.87
2018-11-05T06:42:43.358Z,50.50
2018-11-05T06:45:14.669Z,46.23
2018-11-05T06:47:44.618Z,29.33
2018-11-05T06:50:15.469Z,46.07
2018-11-05T06:52:45.191Z,46.70
2018-11-05T06:55:15.731Z,61.50
2018-11-05T06:57:45.112Z,49.33
2018-11-05T07:00:18.323Z,34.27
2018-11-05T07:02:47.814Z,42.30
2018-11-05T07:05:17.498Z,22.50
2018-11-05T07:07:46.678Z,34.37
2018-11-05T07:10:17.627Z,26.23
2018-11-05T07:12:46.999Z,21.02
2018-11-05T07:15:17.521Z,22.43
2018-11-05T07:17:47.758Z,26.03
2018-11-05T07:20:17.911Z,45.47
2018-11-05T07:22:47.661Z,21.57
2018-11-05T07:25:16.696Z,22.83
2018-11-05T07:27:46.059Z,22.63
2018-11-05T07:30:17.100Z,33.37
2018-11-05T07:32:46.780Z,23.05
2018-11-05T07:35:16.166Z,27.10
2018-11-05T07:37:45.367Z,25.70
2018-11-05T07:40:15.527Z,33.07
2018-11-05T07:42:44.931Z,43.47
2018-11-05T07:45:16.162Z,36.90
2018-11-05T07:47:48.085Z,56.57
2018-11-05T07:50:18.098Z,36.27
2018-11-05T07:52:46.899Z,64.12
2018-11-05T07:55:17.303Z,29.85
2018-11-05T07:57:47.030Z,89.13
2018-11-05T08:00:21.956Z,98.00
2018-11-05T08:02:52.754Z,70.30
2018-11-05T08:05:23.625Z,63.07
2018-11-05T08:07:52.998Z,23.10
2018-11-05T08:10:22.374Z,64.70
2018-11-05T08:12:51.665Z,52.63
2018-11-05T08:15:23.633Z,22.43
2018-11-05T08:17:54.043Z,34.47
2018-11-05T08:20:23.358Z,30.90
2018-11-05T08:22:53.494Z,26.57
2018-11-05T08:25:23.047Z,21.45
2018-11-05T08:27:51.884Z,12.83
2018-11-05T08:30:22.138Z,12.63
2018-11-05T08:32:51.184Z,16.37
2018-11-05T08:35:20.284Z,16.82
2018-11-05T08:37:50.535Z,14.00
2018-11-05T08:40:22.018Z,15.37
2018-11-05T08:42:52.702Z,17.02
2018-11-05T08:45:22.909Z,15.85
2018-11-05T08:47:52.010Z,15.40
2018-11-05T08:50:22.582Z,16.27
2018-11-05T08:52:51.858Z,16.73
2018-11-05T08:55:21.931Z,17.73
2018-11-05T08:57:51.081Z,14.53
2018-11-05T09:00:25.837Z,16.37
2018-11-05T09:02:55.147Z,17.63
2018-11-05T09:05:27.669Z,16.32
2018-11-05T09:07:56.817Z,17.77
2018-11-05T09:10:25.948Z,13.80
2018-11-05T09:12:55.039Z,17.83
2018-11-05T09:15:24.320Z,16.33
2018-11-05T09:17:53.804Z,16.33
2018-11-05T09:20:22.727Z,17.60
2018-11-05T09:22:52.443Z,18.33
2018-11-05T09:25:21.191Z,33.67
2018-11-05T09:27:50.789Z,41.75
2018-11-05T09:30:21.986Z,27.80
2018-11-05T09:32:50.867Z,21.10
2018-11-05T09:35:19.726Z,22.50
2018-11-05T09:37:48.636Z,20.62
2018-11-05T09:40:19.095Z,24.40
2018-11-05T09:42:48.557Z,21.90
2018-11-05T09:45:19.658Z,22.50
2018-11-05T09:47:49.045Z,24.53
2018-11-05T09:50:18.680Z,19.40
2018-11-05T09:52:48.545Z,23.57
2018-11-05T09:55:17.785Z,19.47
2018-11-05T09:57:47.851Z,22.43
2018-11-05T10:00:18.537Z,24.37
2018-11-05T10:02:52.742Z,20.77
2018-11-05T10:05:21.425Z,24.37
2018-11-05T10:07:50.144Z,27.30
2018-11-05T10:10:19.287Z,19.10
2018-11-05T10:12:48.293Z,18.87
2018-11-05T10:15:17.949Z,19.27
2018-11-05T10:17:47.249Z,20.47
2018-11-05T10:20:17.964Z,20.00
2018-11-05T10:22:47.267Z,18.30
2018-11-05T10:25:16.603Z,18.23
2018-11-05T10:27:46.082Z,18.63
2018-11-05T10:30:18.470Z,20.30
2018-11-05T10:32:47.711Z,21.77
2018-11-05T10:35:17.304Z,21.07
2018-11-05T10:37:46.418Z,22.90
2018-11-05T10:40:17.581Z,21.97
2018-11-05T10:42:47.404Z,25.77
2018-11-05T10:45:17.683Z,22.97
2018-11-05T10:47:47.183Z,18.80
2018-11-05T10:50:17.305Z,22.60
2018-11-05T10:52:48.549Z,22.90
2018-11-05T10:55:17.716Z,24.57
2018-11-05T10:57:47.121Z,24.20
2018-11-05T11:00:24.351Z,22.17
2018-11-05T11:03:00.688Z,21.77
2018-11-05T11:05:30.853Z,19.07
2018-11-05T11:08:02.955Z,20.27
2018-11-05T11:10:34.194Z,23.32
2018-11-05T11:13:03.902Z,20.40
2018-11-05T11:15:33.230Z,20.02
2018-11-05T11:18:02.557Z,28.30
2018-11-05T11:20:31.902Z,21.33
2018-11-05T11:23:00.977Z,21.17
2018-11-05T11:25:30.278Z,20.67
2018-11-05T11:27:59.332Z,20.10
2018-11-05T11:30:28.140Z,21.83
2018-11-05T11:32:57.175Z,20.87
2018-11-05T11:35:27.487Z,22.83
2018-11-05T11:37:56.655Z,21.80
2018-11-05T11:40:44.467Z,20.25
2018-11-05T11:43:14.058Z,19.30
2018-11-05T11:45:44.405Z,19.93
2018-11-05T11:48:16.752Z,20.63
2018-11-05T11:50:55.222Z,20.90
2018-11-05T11:53:28.228Z,18.83
2018-11-05T11:55:59.602Z,20.53
2018-11-05T11:58:36.816Z,22.03
2018-11-05T12:04:00.053Z,22.70
2018-11-05T12:06:33.214Z,20.07
2018-11-05T12:12:17.857Z,18.03
2018-11-05T12:15:09.359Z,20.23
2018-11-05T12:17:41.047Z,20.60
2018-11-05T12:20:16.237Z,17.17
2018-11-05T12:22:47.300Z,17.00
2018-11-05T12:25:27.515Z,19.02
2018-11-05T12:28:40.066Z,25.50
2018-11-05T12:31:11.317Z,21.14
2018-11-05T12:33:44.111Z,20.45
2018-11-05T12:36:21.015Z,24.40
2018-11-05T12:38:54.150Z,20.30
2018-11-05T12:41:27.515Z,21.90
2018-11-05T12:44:04.673Z,22.80
2018-11-05T12:46:57.496Z,20.97
2018-11-05T12:49:29.020Z,20.73
2018-11-05T12:52:16.425Z,21.27
2018-11-05T12:54:46.324Z,20.27
2018-11-05T12:57:16.024Z,21.20
2018-11-05T12:59:45.584Z,19.23
2018-11-05T13:02:21.898Z,22.90
2018-11-05T13:07:47.196Z,21.70
2018-11-05T13:10:17.023Z,20.80
2018-11-05T13:12:49.538Z,22.90
2018-11-05T13:15:19.269Z,18.73
2018-11-05T13:17:53.076Z,17.77
2018-11-05T13:20:30.613Z,19.70
2018-11-05T13:23:02.383Z,16.70
2018-11-05T13:28:45.254Z,20.70
2018-11-05T13:31:31.758Z,17.80
2018-11-05T13:34:26.447Z,15.60
2018-11-05T13:39:50.671Z,20.62
2018-11-05T13:45:25.048Z,55.90
2018-11-05T13:48:04.787Z,15.43
2018-11-05T13:50:37.729Z,19.10
2018-11-05T13:55:53.360Z,16.45
2018-11-05T13:58:36.901Z,20.30
2018-11-05T14:01:26.906Z,15.53
2018-11-05T14:08:17.049Z,14.60
2018-11-05T14:10:55.486Z,12.00
2018-11-05T14:20:29.418Z,13.80
2018-11-05T14:51:30.906Z,12.00
2018-11-05T14:54:05.714Z,12.87
2018-11-05T14:56:35.189Z,14.13
2018-11-05T14:59:05.747Z,13.40
2018-11-05T15:01:39.794Z,18.10
2018-11-05T15:04:09.421Z,15.93
2018-11-05T15:06:39.541Z,15.30
2018-11-05T15:09:13.630Z,15.70
2018-11-05T15:11:43.530Z,12.83
2018-11-05T15:14:16.663Z,16.37
2018-11-05T15:16:52.630Z,12.78
2018-11-05T15:19:22.623Z,13.10
2018-11-05T15:22:06.678Z,22.87
2018-11-05T15:24:36.165Z,13.50
2018-11-05T15:27:05.866Z,15.30
2018-11-05T15:29:40.211Z,13.83
2018-11-05T15:32:15.806Z,20.53
2018-11-05T15:34:45.386Z,15.25
2018-11-05T15:40:12.895Z,13.03
2018-11-05T15:42:48.111Z,12.45
2018-11-05T15:45:19.060Z,13.20
2018-11-05T15:47:48.814Z,13.70
2018-11-05T15:50:21.863Z,14.13
2018-11-05T15:52:52.980Z,13.93
2018-11-05T15:55:21.649Z,16.93
2018-11-05T15:57:50.849Z,14.90
2018-11-05T16:00:21.799Z,14.60
2018-11-05T16:02:54.486Z,22.00
2018-11-05T16:05:24.042Z,20.37
2018-11-05T16:07:53.101Z,18.77
2018-11-05T16:10:22.488Z,19.03
2018-11-05T16:12:52.086Z,21.13
2018-11-05T16:15:21.161Z,18.03
2018-11-05T16:17:51.824Z,16.83
2018-11-05T16:20:22.378Z,14.40
2018-11-05T16:22:54.103Z,19.80
2018-11-05T16:25:23.136Z,14.63
2018-11-05T16:27:52.606Z,16.60
2018-11-05T16:30:22.616Z,16.00
2018-11-05T16:32:59.123Z,18.17
2018-11-05T16:35:29.145Z,22.73
2018-11-05T16:37:58.164Z,19.97
2018-11-05T16:40:27.353Z,17.93
2018-11-05T16:42:56.790Z,18.13
2018-11-05T16:45:25.697Z,16.42
2018-11-05T16:47:54.910Z,14.37
2018-11-05T16:50:25.940Z,19.83
2018-11-05T16:52:55.626Z,16.53
2018-11-05T16:55:25.286Z,13.72
2018-11-05T16:58:34.988Z,14.07
2018-11-05T17:01:04.682Z,14.13
2018-11-05T17:03:34.236Z,16.17
2018-11-05T17:06:04.452Z,15.50
2018-11-05T17:08:33.344Z,14.50
2018-11-05T17:11:04.292Z,14.23
2018-11-05T17:16:26.634Z,13.80
2018-11-05T17:18:55.595Z,15.13
2018-11-05T17:21:24.718Z,13.83
2018-11-05T17:23:53.670Z,14.80
2018-11-05T17:26:22.448Z,18.27
2018-11-05T17:28:51.700Z,17.80
2018-11-05T17:31:20.589Z,21.90
2018-11-05T17:34:12.622Z,19.47
2018-11-05T17:36:47.337Z,19.17
2018-11-05T17:39:26.855Z,25.53
2018-11-05T17:42:04.799Z,25.53
2018-11-05T17:44:46.026Z,22.27
2018-11-05T17:47:39.416Z,17.80
2018-11-05T17:50:18.093Z,18.73
2018-11-05T17:52:59.445Z,24.00
2018-11-05T17:55:34.417Z,36.45
2018-11-05T17:58:09.849Z,24.70
2018-11-05T18:04:09.911Z,18.03
2018-11-05T18:09:38.942Z,14.63
2018-11-05T18:12:10.947Z,13.70
2018-11-05T18:14:40.364Z,15.20
2018-11-05T18:17:09.672Z,18.53
2018-11-05T18:19:38.948Z,17.93
2018-11-05T18:22:11.190Z,18.40
2018-11-05T18:24:39.899Z,26.67
2018-11-05T18:27:08.507Z,21.77
2018-11-05T18:29:37.457Z,34.80
2018-11-05T18:32:06.088Z,31.55
2018-11-05T18:34:35.000Z,21.97
2018-11-05T18:37:03.716Z,17.90
2018-11-05T18:39:32.562Z,25.13
2018-11-05T18:42:02.539Z,22.20
2018-11-05T18:44:31.564Z,24.13
2018-11-05T18:47:00.397Z,25.20
2018-11-05T18:49:29.403Z,24.60
2018-11-05T18:51:58.421Z,28.87
2018-11-05T18:54:27.326Z,25.52
2018-11-05T18:56:56.371Z,27.43
2018-11-05T18:59:25.904Z,31.27
2018-11-05T19:01:59.519Z,28.30
2018-11-05T19:04:28.467Z,32.40
2018-11-05T19:06:57.967Z,29.67
2018-11-05T19:09:27.503Z,29.00
2018-11-05T19:11:56.714Z,31.13
2018-11-05T19:14:25.699Z,29.63
2018-11-05T19:16:58.683Z,26.50
2018-11-05T19:19:27.686Z,28.80
2018-11-05T19:21:56.919Z,31.30
2018-11-05T19:24:27.951Z,29.47
2018-11-05T19:26:56.856Z,30.20
2018-11-05T19:29:26.724Z,25.10
2018-11-05T19:31:55.828Z,27.93
2018-11-05T19:34:27.409Z,28.00
2018-11-05T19:36:56.627Z,29.03
2018-11-05T19:39:25.495Z,29.13
2018-11-05T19:41:54.813Z,26.17
2018-11-05T19:44:24.550Z,30.37
2018-11-05T19:46:54.005Z,30.43
2018-11-05T19:49:23.331Z,25.80
2018-11-05T19:51:52.825Z,29.00
2018-11-05T19:54:22.036Z,23.90
2018-11-05T19:56:51.137Z,27.55
2018-11-05T19:59:20.238Z,26.47
2018-11-05T20:01:52.162Z,28.03
2018-11-05T20:04:21.377Z,17.30
2018-11-05T20:06:50.129Z,19.85
2018-11-05T20:09:19.125Z,25.90
2018-11-05T20:11:47.800Z,22.23
2018-11-05T20:14:16.953Z,24.30
2018-11-05T20:16:46.236Z,21.00
2018-11-05T20:19:15.463Z,19.70
2018-11-05T20:21:44.432Z,26.77
2018-11-05T20:24:13.836Z,25.60
2018-11-05T20:26:42.754Z,22.07
2018-11-05T20:29:11.954Z,24.87
2018-11-05T20:31:41.703Z,28.40
2018-11-05T20:34:10.524Z,26.93
2018-11-05T20:36:39.070Z,25.80
2018-11-05T20:39:09.865Z,26.00
2018-11-05T20:41:40.227Z,22.20
2018-11-05T20:44:09.548Z,25.33
2018-11-05T20:46:39.108Z,21.93
2018-11-05T20:49:08.419Z,22.87
2018-11-05T20:51:37.882Z,21.77
2018-11-05T20:54:15.400Z,24.07
2018-11-05T20:56:44.523Z,20.73
2018-11-05T20:59:13.332Z,21.23
2018-11-05T21:01:42.291Z,19.20
2018-11-05T21:04:12.288Z,19.97
2018-11-05T21:06:41.386Z,20.07
2018-11-05T21:09:11.147Z,21.53
2018-11-05T21:11:40.290Z,19.27
2018-11-05T21:14:09.862Z,18.13
2018-11-05T21:16:39.081Z,20.55
2018-11-05T21:19:08.414Z,20.70
2018-11-05T21:21:37.771Z,22.20
2018-11-05T21:24:06.684Z,19.60
2018-11-05T21:26:35.682Z,19.50
2018-11-05T21:29:04.595Z,18.80
2018-11-05T21:31:33.614Z,25.87
2018-11-05T21:34:02.404Z,19.10
2018-11-05T21:36:31.239Z,20.73
2018-11-05T21:39:00.349Z,22.63
2018-11-05T21:41:29.248Z,21.57
2018-11-05T21:43:58.742Z,22.10
2018-11-05T21:46:27.376Z,18.80
2018-11-05T21:48:56.345Z,21.83
2018-11-05T21:51:25.893Z,19.20
2018-11-05T21:53:55.091Z,20.30
2018-11-05T21:56:24.481Z,21.53
2018-11-05T21:58:54.329Z,18.03
2018-11-05T22:01:24.278Z,21.23
2018-11-05T22:03:52.964Z,23.33
2018-11-05T22:06:21.630Z,17.60
2018-11-05T22:08:50.587Z,19.40
2018-11-05T22:11:19.486Z,18.00
2018-11-05T22:13:48.454Z,15.93
2018-11-05T22:16:17.080Z,16.63
2018-11-05T22:18:45.746Z,22.50
2018-11-05T22:21:14.470Z,25.07
2018-11-05T22:23:43.329Z,25.50
2018-11-05T22:26:12.124Z,24.00
2018-11-05T22:28:40.993Z,18.30
2018-11-05T22:31:10.197Z,18.53
2018-11-05T22:33:39.400Z,19.70
2018-11-05T22:36:08.253Z,27.70
2018-11-05T22:38:37.082Z,35.10
2018-11-05T22:41:07.008Z,41.37
2018-11-05T22:43:37.564Z,24.60
2018-11-05T22:46:06.717Z,28.80
2018-11-05T22:48:35.386Z,35.63
2018-11-05T22:51:04.849Z,41.93
2018-11-05T22:53:33.475Z,49.10
2018-11-05T22:56:02.237Z,33.07
2018-11-05T22:58:30.721Z,35.77
2018-11-05T23:01:02.946Z,34.87
2018-11-05T23:03:31.971Z,31.27
2018-11-05T23:06:01.258Z,39.45
2018-11-05T23:08:30.070Z,28.00
2018-11-05T23:10:59.046Z,33.80
2018-11-05T23:13:27.795Z,32.17
2018-11-05T23:15:56.349Z,31.30
2018-11-05T23:18:24.976Z,34.57
2018-11-05T23:20:54.227Z,20.63
2018-11-05T23:23:22.881Z,24.77
2018-11-05T23:25:51.448Z,20.87
2018-11-05T23:28:20.406Z,22.07
2018-11-05T23:30:48.965Z,22.47
2018-11-05T23:33:17.837Z,24.13
2018-11-05T23:35:46.569Z,23.52
2018-11-05T23:38:15.365Z,22.73
2018-11-05T23:40:44.017Z,23.87
2018-11-05T23:43:12.624Z,22.40
2018-11-05T23:45:41.339Z,19.90
2018-11-05T23:48:09.997Z,19.27
2018-11-05T23:50:38.885Z,23.00
2018-11-05T23:53:07.785Z,21.30
2018-11-05T23:55:36.587Z,19.30
2018-11-05T23:58:05.156Z,21.97
